Time;durP1;ratioP1;P1;durP2;ratioP2;P2;SDS_P1;SDS_P2;PMS_P1;PMS_P2;Temp;Humidity;BMP_temperature;BMP_pressure;BME280_temperature;BME280_humidity;BME280_pressure;Samples;Min_cycle;Max_cycle;Signal;HPM_P1;HPM_P2
2023/09/20 00:01:27;;;;;;;2.43;1.73;;;;;;;13.51;100.00;96399.44;5053923;27;105393;-80
2023/09/20 00:03:54;;;;;;;1.70;1.60;;;;;;;13.45;100.00;96397.03;5052420;27;103845;-79
2023/09/20 00:06:23;;;;;;;2.00;1.60;;;;;;;13.49;100.00;96395.44;5071858;27;101718;-79
2023/09/20 00:08:50;;;;;;;2.40;1.83;;;;;;;13.50;100.00;96405.84;5056479;27;105097;-80
2023/09/20 00:11:18;;;;;;;1.70;1.60;;;;;;;13.29;100.00;96395.41;5053780;27;101968;-80
2023/09/20 00:13:46;;;;;;;1.67;1.57;;;;;;;13.20;100.00;96395.16;5053878;27;105546;-80
2023/09/20 00:16:13;;;;;;;1.60;1.50;;;;;;;13.21;100.00;96396.78;5053130;27;105836;-79
2023/09/20 00:18:40;;;;;;;1.47;1.37;;;;;;;13.22;100.00;96402.91;5053660;27;101980;-79
2023/09/20 00:21:07;;;;;;;1.80;1.53;;;;;;;13.13;100.00;96393.84;5072048;27;102681;-79
2023/09/20 00:23:35;;;;;;;1.63;1.53;;;;;;;13.07;100.00;96395.69;5052979;27;105922;-81
2023/09/20 00:26:03;;;;;;;2.13;1.67;;;;;;;13.08;100.00;96393.84;5053320;27;101957;-81
2023/09/20 00:28:31;;;;;;;1.70;1.60;;;;;;;12.98;100.00;96391.94;5053549;27;105137;-81
2023/09/20 00:30:59;;;;;;;1.73;1.63;;;;;;;12.98;100.00;96394.59;5056405;27;105593;-81
2023/09/20 00:33:29;;;;;;;1.60;1.50;;;;;;;12.93;100.00;96391.88;5071714;27;102535;-80
2023/09/20 00:35:56;;;;;;;1.70;1.60;;;;;;;13.00;100.00;96402.34;5053002;27;105455;-81
2023/09/20 00:38:24;;;;;;;1.70;1.60;;;;;;;12.94;100.00;96401.53;5053257;27;102546;-80
2023/09/20 00:40:53;;;;;;;1.67;1.57;;;;;;;12.96;100.00;96395.94;5053327;27;104916;-81
2023/09/20 00:43:24;;;;;;;2.97;2.17;;;;;;;12.99;100.00;96395.41;5052831;27;105652;-80
2023/09/20 00:45:51;;;;;;;2.47;2.23;;;;;;;12.99;100.00;96387.41;5053140;27;102243;-80
2023/09/20 00:48:19;;;;;;;1.80;1.70;;;;;;;12.97;100.00;96389.53;5053355;27;105067;-80
2023/09/20 00:50:48;;;;;;;2.63;1.83;;;;;;;13.05;100.00;96392.50;5052570;27;105725;-80
2023/09/20 00:53:15;;;;;;;2.17;1.70;;;;;;;13.04;100.00;96385.53;5056330;27;101885;-81
2023/09/20 00:55:43;;;;;;;1.97;1.77;;;;;;;12.97;100.00;96378.88;5052590;27;105101;-81
2023/09/20 00:58:15;;;;;;;2.40;1.70;;;;;;;12.92;100.00;96392.19;5053134;27;101929;-78
2023/09/20 01:00:43;;;;;;;2.20;1.60;;;;;;;12.94;100.00;96388.19;5053108;27;105275;-79
2023/09/20 01:03:15;;;;;;;1.70;1.60;;;;;;;12.98;100.00;96385.81;5052174;27;105868;-79
2023/09/20 01:05:42;;;;;;;1.70;1.60;;;;;;;12.94;100.00;96384.69;5052982;27;101899;-80
2023/09/20 01:08:10;;;;;;;1.90;1.80;;;;;;;12.85;100.00;96379.06;5052863;27;105784;-80
2023/09/20 01:10:37;;;;;;;1.80;1.70;;;;;;;12.88;100.00;96375.06;5052235;27;105760;-80
2023/09/20 01:13:06;;;;;;;2.77;2.10;;;;;;;12.86;100.00;96372.66;5052562;27;101958;-80
2023/09/20 01:15:37;;;;;;;2.10;1.97;;;;;;;12.65;100.00;96375.56;5054342;27;105350;-80
2023/09/20 01:18:04;;;;;;;3.20;1.70;;;;;;;12.70;100.00;96378.25;5052775;27;101994;-80
2023/09/20 01:20:37;;;;;;;1.70;1.60;;;;;;;12.48;100.00;96375.00;5052698;27;105290;-80
2023/09/20 01:23:05;;;;;;;2.07;1.87;;;;;;;12.50;100.00;96376.34;5051860;27;105658;-80
2023/09/20 01:25:35;;;;;;;1.63;1.53;;;;;;;12.58;100.00;96377.66;5052201;27;101953;-81
2023/09/20 01:28:04;;;;;;;2.63;1.90;;;;;;;12.61;100.00;96379.81;5052692;27;105756;-80
2023/09/20 01:30:35;;;;;;;2.47;1.90;;;;;;;12.64;100.00;96373.97;5052018;27;105045;-80
2023/09/20 01:33:03;;;;;;;2.33;2.13;;;;;;;12.63;100.00;96372.34;5052515;27;101915;-80
2023/09/20 01:35:32;;;;;;;2.17;2.07;;;;;;;12.65;100.00;96372.91;5052622;27;104813;-79
2023/09/20 01:38:00;;;;;;;2.03;1.83;;;;;;;12.60;100.00;96376.34;5055327;27;104636;-79
2023/09/20 01:40:28;;;;;;;1.90;1.80;;;;;;;12.62;100.00;96376.09;5052341;27;105597;-79
2023/09/20 01:42:57;;;;;;;5.33;2.27;;;;;;;12.60;100.00;96372.88;5051834;27;105634;-81
2023/09/20 01:45:24;;;;;;;2.93;1.90;;;;;;;12.58;100.00;96372.31;5052230;27;101890;-81
2023/09/20 01:47:53;;;;;;;2.10;2.00;;;;;;;12.55;100.00;96360.34;5052428;27;105665;-81
2023/09/20 01:50:21;;;;;;;3.27;2.10;;;;;;;12.59;100.00;96366.72;5051469;27;105445;-81
2023/09/20 01:52:49;;;;;;;2.20;2.00;;;;;;;12.54;100.00;96364.06;5052458;27;101898;-81
2023/09/20 01:55:17;;;;;;;2.50;1.80;;;;;;;12.59;100.00;96368.63;5052282;27;104935;-78
2023/09/20 01:57:46;;;;;;;3.87;2.00;;;;;;;12.54;100.00;96366.72;5054993;27;105856;-78
2023/09/20 02:00:22;;;;;;;2.03;1.83;;;;;;;12.50;100.00;96363.00;5052176;27;103993;-78
2023/09/20 02:02:51;;;;;;;1.90;1.80;;;;;;;12.53;100.00;96356.34;5051593;27;104253;-81
2023/09/20 02:05:19;;;;;;;1.83;1.70;;;;;;;12.53;100.00;96359.00;5052191;27;101958;-81
2023/09/20 02:07:46;;;;;;;1.87;1.50;;;;;;;12.54;100.00;96363.28;5052258;27;105671;-81
2023/09/20 02:10:14;;;;;;;5.50;1.60;;;;;;;12.58;100.00;96359.00;5051677;27;105232;-81
2023/09/20 02:12:46;;;;;;;1.43;1.33;;;;;;;12.55;100.00;96359.53;5052006;27;101996;-81
2023/09/20 02:15:14;;;;;;;1.60;1.50;;;;;;;12.47;100.00;96354.69;5052134;27;105286;-80
2023/09/20 02:17:41;;;;;;;1.83;1.70;;;;;;;12.45;100.00;96354.16;5051168;27;105695;-80
2023/09/20 02:20:12;;;;;;;1.90;1.60;;;;;;;12.41;100.00;96355.75;5055270;27;101867;-80
2023/09/20 02:22:40;;;;;;;1.50;1.40;;;;;;;12.23;100.00;96351.72;5051279;27;105552;-80
2023/09/20 02:25:12;;;;;;;1.63;1.40;;;;;;;12.23;100.00;96356.22;5051418;27;102002;-80
2023/09/20 02:27:43;;;;;;;1.70;1.60;;;;;;;12.22;100.00;96355.41;5054024;27;105316;-80
2023/09/20 02:30:15;;;;;;;2.43;1.70;;;;;;;12.23;100.00;96351.72;5054854;27;105792;-80
2023/09/20 02:32:42;;;;;;;1.77;1.67;;;;;;;12.23;100.00;96345.56;5055223;27;101804;-80
2023/09/20 02:35:11;;;;;;;2.43;1.63;;;;;;;12.31;100.00;96351.19;5055169;27;105404;-80
2023/09/20 02:37:40;;;;;;;1.57;1.47;;;;;;;12.34;100.00;96358.69;5054751;27;105339;-80
2023/09/20 02:40:13;;;;;;;1.40;1.30;;;;;;;12.36;100.00;96358.41;5055234;27;101900;-80
2023/09/20 02:42:44;;;;;;;1.50;1.40;;;;;;;12.28;100.00;96364.25;5057927;27;104936;-80
2023/09/20 02:45:15;;;;;;;1.70;1.47;;;;;;;12.28;100.00;96354.41;5055033;27;101934;-80
2023/09/20 02:47:43;;;;;;;3.20;1.40;;;;;;;12.28;100.00;96362.41;5054954;27;105407;-80
2023/09/20 02:50:12;;;;;;;1.60;1.50;;;;;;;12.28;100.00;96357.06;5054557;27;105483;-80
2023/09/20 02:52:39;;;;;;;1.57;1.47;;;;;;;12.26;100.00;96355.72;5054863;27;101913;-79
2023/09/20 02:55:08;;;;;;;1.73;1.63;;;;;;;12.27;100.00;96351.97;5055063;27;104826;-79
2023/09/20 02:57:36;;;;;;;1.30;1.30;;;;;;;12.27;100.00;96343.97;5054425;27;104394;-80
2023/09/20 03:00:15;;;;;;;1.40;1.30;;;;;;;12.27;100.00;96347.44;5054851;27;102028;-79
2023/09/20 03:02:47;;;;;;;2.17;1.60;;;;;;;12.14;100.00;96349.78;5054485;27;105004;-79
2023/09/20 03:05:16;;;;;;;3.07;1.73;;;;;;;12.18;100.00;96343.69;5057881;27;104507;-78
2023/09/20 03:07:44;;;;;;;1.50;1.40;;;;;;;12.20;100.00;96340.75;5038303;27;104796;-78
2023/09/20 03:10:13;;;;;;;1.50;1.23;;;;;;;12.19;100.00;96341.81;5054158;27;105255;-78
2023/09/20 03:12:43;;;;;;;1.70;1.60;;;;;;;12.16;100.00;96335.13;5054633;27;102227;-78
2023/09/20 03:15:12;;;;;;;1.63;1.53;;;;;;;12.21;100.00;96343.16;5055138;27;105429;-80
2023/09/20 03:17:40;;;;;;;1.50;1.40;;;;;;;12.21;100.00;96342.38;5053903;27;105582;-80
2023/09/20 03:20:11;;;;;;;1.90;1.70;;;;;;;12.23;100.00;96337.56;5054750;27;102005;-80
2023/09/20 03:22:40;;;;;;;3.83;1.80;;;;;;;12.23;100.00;96335.72;5054525;27;104534;-80
2023/09/20 03:25:11;;;;;;;1.63;1.53;;;;;;;12.18;100.00;96342.88;5053700;27;105510;-80
2023/09/20 03:27:40;;;;;;;1.30;1.30;;;;;;;12.14;100.00;96336.44;5057958;27;101970;-80
2023/09/20 03:30:13;;;;;;;1.50;1.40;;;;;;;12.11;100.00;96337.00;5053739;27;105247;-80
2023/09/20 03:32:42;;;;;;;1.67;1.50;;;;;;;12.13;100.00;96334.84;5054213;27;101852;-80
2023/09/20 03:35:12;;;;;;;1.80;1.70;;;;;;;12.04;100.00;96339.88;5054288;27;105437;-80
2023/09/20 03:37:41;;;;;;;2.50;1.50;;;;;;;12.06;100.00;96329.78;5053687;27;105537;-80
2023/09/20 03:40:15;;;;;;;1.60;1.50;;;;;;;12.02;100.00;96335.88;5053548;27;101876;-80
2023/09/20 03:42:43;;;;;;;2.03;1.70;;;;;;;11.99;100.00;96339.88;5054409;27;105627;-80
2023/09/20 03:45:12;;;;;;;1.60;1.50;;;;;;;11.97;100.00;96341.19;5053671;27;105350;-80
2023/09/20 03:47:41;;;;;;;1.60;1.50;;;;;;;11.95;100.00;96338.78;5054360;27;101856;-80
2023/09/20 03:50:09;;;;;;;2.50;1.67;;;;;;;12.01;100.00;96334.28;5056985;27;105357;-80
2023/09/20 03:52:38;;;;;;;2.00;1.60;;;;;;;11.96;100.00;96332.41;5054203;27;101917;-79
2023/09/20 03:55:07;;;;;;;1.90;1.80;;;;;;;11.99;100.00;96328.41;5054045;27;105585;-80
2023/09/20 03:57:37;;;;;;;2.13;1.80;;;;;;;11.91;100.00;96324.38;5053411;27;105384;-80
2023/09/20 04:00:07;;;;;;;1.70;1.60;;;;;;;11.88;100.00;96329.44;5053813;27;101864;-80
2023/09/20 04:02:40;;;;;;;1.60;1.50;;;;;;;11.95;100.00;96324.66;5069226;27;102206;-80
2023/09/20 04:05:13;;;;;;;2.27;1.70;;;;;;;11.98;100.00;96324.94;5053354;27;105717;-80
2023/09/20 04:07:44;;;;;;;2.53;2.13;;;;;;;12.02;100.00;96322.56;5053853;27;101922;-80
2023/09/20 04:10:11;;;;;;;2.63;2.07;;;;;;;12.02;100.00;96317.22;5056827;27;105273;-80
2023/09/20 04:12:38;;;;;;;3.93;1.90;;;;;;;11.92;100.00;96325.16;5053626;27;101900;-81
2023/09/20 04:15:07;;;;;;;2.43;1.90;;;;;;;11.98;100.00;96332.13;5053702;27;105358;-81
2023/09/20 04:17:35;;;;;;;1.80;1.70;;;;;;;11.92;100.00;96319.84;5052998;27;104569;-80
2023/09/20 04:20:03;;;;;;;2.10;1.90;;;;;;;11.87;100.00;96323.28;5053700;27;102001;-80
2023/09/20 04:22:31;;;;;;;2.00;1.90;;;;;;;11.87;100.00;96317.16;5053569;27;104959;-80
2023/09/20 04:25:00;;;;;;;1.90;1.80;;;;;;;11.88;100.00;96313.44;5052511;27;105235;-80
2023/09/20 04:27:28;;;;;;;1.97;1.77;;;;;;;11.82;100.00;96312.63;5053455;27;102236;-79
2023/09/20 04:29:57;;;;;;;2.53;1.70;;;;;;;11.74;100.00;96320.28;5053551;27;105301;-78
2023/09/20 04:32:25;;;;;;;1.90;1.80;;;;;;;11.75;100.00;96316.56;5074747;27;102767;-79
2023/09/20 04:34:56;;;;;;;1.80;1.70;;;;;;;11.75;100.00;96312.06;5053451;27;105420;-78
2023/09/20 04:37:25;;;;;;;1.90;1.80;;;;;;;11.81;100.00;96312.88;5052867;27;105229;-78
2023/09/20 04:39:52;;;;;;;1.97;1.80;;;;;;;11.79;100.00;96312.34;5053182;27;101918;-76
2023/09/20 04:42:22;;;;;;;1.80;1.70;;;;;;;11.79;100.00;96313.16;5053086;27;104507;-78
2023/09/20 04:44:51;;;;;;;2.97;1.73;;;;;;;11.81;100.00;96316.34;5052678;27;105542;-78
2023/09/20 04:47:18;;;;;;;3.27;1.90;;;;;;;11.87;100.00;96312.63;5053315;27;101987;-77
2023/09/20 04:49:46;;;;;;;2.40;1.93;;;;;;;11.92;100.00;96325.16;5052919;27;103979;-79
2023/09/20 04:52:15;;;;;;;3.43;2.30;;;;;;;11.90;100.00;96333.44;5052683;27;105651;-78
2023/09/20 04:54:43;;;;;;;2.03;1.80;;;;;;;11.87;100.00;96325.13;5056627;27;101857;-78
2023/09/20 04:57:12;;;;;;;2.83;2.20;;;;;;;11.89;100.00;96321.16;5052495;27;105547;-78
2023/09/20 04:59:41;;;;;;;2.83;2.00;;;;;;;11.87;100.00;96327.81;5052781;27;102329;-78
2023/09/20 05:02:08;;;;;;;2.03;1.70;;;;;;;11.88;100.00;96324.09;5053139;27;105434;-78
2023/09/20 05:04:36;;;;;;;2.00;1.80;;;;;;;11.94;100.00;96329.19;5052248;27;104827;-78
2023/09/20 05:07:05;;;;;;;3.00;1.80;;;;;;;11.96;100.00;96331.59;5053214;27;101765;-78
2023/09/20 05:09:36;;;;;;;2.50;2.30;;;;;;;11.87;100.00;96330.47;5053043;27;104960;-78
2023/09/20 05:12:04;;;;;;;2.03;1.83;;;;;;;11.89;100.00;96334.47;5052106;27;105380;-78
2023/09/20 05:14:32;;;;;;;1.90;1.80;;;;;;;11.95;100.00;96333.44;5052874;27;102139;-78
2023/09/20 05:17:01;;;;;;;3.73;2.07;;;;;;;11.91;100.00;96336.91;5055420;27;104024;-78
2023/09/20 05:19:27;;;;;;;2.33;1.80;;;;;;;11.99;100.00;96341.75;5053023;27;102235;-78
2023/09/20 05:21:55;;;;;;;2.03;1.80;;;;;;;11.99;100.00;96333.75;5053139;27;105368;-78
2023/09/20 05:24:23;;;;;;;3.67;2.07;;;;;;;11.95;100.00;96328.13;5051749;27;105832;-78
2023/09/20 05:26:50;;;;;;;2.77;2.00;;;;;;;11.93;100.00;96334.78;5052685;27;101891;-78
2023/09/20 05:29:18;;;;;;;1.60;1.50;;;;;;;12.03;100.00;96334.81;5070916;27;102808;-78
2023/09/20 05:31:45;;;;;;;3.93;2.00;;;;;;;12.11;100.00;96335.13;5052156;27;105050;-78
2023/09/20 05:34:13;;;;;;;3.23;1.83;;;;;;;12.27;100.00;96338.66;5052737;27;102038;-78
2023/09/20 05:36:43;;;;;;;7.23;2.93;;;;;;;12.34;100.00;96332.00;5070946;27;102655;-78
2023/09/20 05:39:12;;;;;;;5.00;2.20;;;;;;;12.41;100.00;96335.22;5055233;27;105606;-78
2023/09/20 05:41:39;;;;;;;3.77;2.27;;;;;;;12.58;100.00;96343.81;5052449;27;104062;-78
2023/09/20 05:44:07;;;;;;;2.40;2.20;;;;;;;12.66;100.00;96329.97;5051816;27;104033;-78
2023/09/20 05:46:34;;;;;;;2.73;2.30;;;;;;;12.75;100.00;96328.34;5052569;27;102197;-78
2023/09/20 05:49:02;;;;;;;5.10;2.20;;;;;;;12.87;100.00;96334.22;5052178;27;104494;-78
2023/09/20 05:51:30;;;;;;;2.50;2.30;;;;;;;12.98;100.00;96333.19;5051789;27;104211;-78
2023/09/20 05:53:57;;;;;;;3.97;2.20;;;;;;;13.12;100.00;96328.13;5052348;27;101941;-78
2023/09/20 05:56:25;;;;;;;3.53;2.10;;;;;;;13.28;100.00;96327.06;5052158;27;105347;-78
2023/09/20 05:58:53;;;;;;;2.77;2.30;;;;;;;13.35;100.00;96322.25;5051644;27;103815;-77
2023/09/20 06:01:20;;;;;;;4.13;2.50;;;;;;;13.42;100.00;96334.25;5055819;27;101785;-77
2023/09/20 06:03:47;;;;;;;3.17;2.57;;;;;;;13.59;100.00;96328.63;5055184;27;105591;-77
2023/09/20 06:06:14;;;;;;;2.53;2.20;;;;;;;13.73;100.00;96340.38;5056009;27;102472;-77
2023/09/20 06:08:45;;;;;;;2.83;2.33;;;;;;;13.81;100.00;96340.63;5055721;27;105275;-77
2023/09/20 06:11:12;;;;;;;2.80;2.00;;;;;;;13.90;100.00;96344.31;5055105;27;104524;-77
2023/09/20 06:13:39;;;;;;;2.10;2.00;;;;;;;13.95;100.00;96338.94;5055418;27;102625;-77
2023/09/20 06:16:07;;;;;;;2.30;2.10;;;;;;;14.04;100.00;96341.88;5074136;27;101839;-77
2023/09/20 06:18:35;;;;;;;2.10;2.00;;;;;;;14.23;100.00;96348.25;5055078;27;105650;-77
2023/09/20 06:21:03;;;;;;;2.23;2.03;;;;;;;14.33;100.00;96332.16;5059068;27;102004;-77
2023/09/20 06:23:31;;;;;;;2.40;2.20;;;;;;;14.40;100.00;96340.69;5054728;27;104019;-77
2023/09/20 06:26:05;;;;;;;3.07;2.07;;;;;;;14.42;100.00;96338.53;5051840;27;101794;-77
2023/09/20 06:28:32;;;;;;;2.30;2.10;;;;;;;14.56;100.00;96344.88;5051938;27;104835;-77
2023/09/20 06:31:00;;;;;;;2.23;2.10;;;;;;;14.71;100.00;96336.78;5052961;27;102209;-77
2023/09/20 06:33:27;;;;;;;2.43;2.17;;;;;;;14.88;100.00;96321.13;5053453;27;101834;-77
2023/09/20 06:35:55;;;;;;;2.47;2.27;;;;;;;14.97;100.00;96328.28;5052140;27;104811;-77
2023/09/20 06:38:23;;;;;;;2.40;2.20;;;;;;;15.12;100.00;96324.69;5051211;27;103878;-77
2023/09/20 06:40:54;;;;;;;2.90;2.10;;;;;;;15.28;100.00;96320.81;5051666;27;101965;-77
2023/09/20 06:43:23;;;;;;;2.77;1.87;;;;;;;15.42;100.00;96321.81;5054763;27;105451;-77
2023/09/20 06:45:51;;;;;;;2.23;2.03;;;;;;;15.51;100.00;96310.19;5051814;27;101925;-77
2023/09/20 06:48:20;;;;;;;3.77;2.13;;;;;;;15.68;100.00;96315.91;5051925;27;105527;-77
2023/09/20 06:50:48;;;;;;;2.27;2.07;;;;;;;15.80;100.00;96297.53;5050998;27;104247;-77
2023/09/20 06:53:17;;;;;;;4.83;2.10;;;;;;;15.83;100.00;96296.16;5051691;27;102047;-77
2023/09/20 06:55:44;;;;;;;2.47;2.23;;;;;;;15.93;100.00;96294.19;5051750;27;104101;-77
2023/09/20 06:58:11;;;;;;;7.80;2.60;;;;;;;16.04;100.00;96294.84;5051112;27;105384;-77
2023/09/20 07:00:39;;;;;;;2.97;2.47;;;;;;;16.10;100.00;96285.66;5051656;27;102120;-77
2023/09/20 07:03:06;;;;;;;5.63;2.40;;;;;;;16.17;100.00;96286.09;5051543;27;104782;-77
2023/09/20 07:05:34;;;;;;;6.40;2.90;;;;;;;16.28;100.00;96282.19;5054388;27;105450;-77
2023/09/20 07:08:01;;;;;;;4.03;2.20;;;;;;;16.32;100.00;96293.97;5051472;27;105631;-77
2023/09/20 07:10:29;;;;;;;2.70;2.37;;;;;;;16.52;100.00;96296.41;5050875;27;105610;-77
2023/09/20 07:12:56;;;;;;;3.00;2.30;;;;;;;16.50;100.00;96301.25;5050074;27;101903;-77
2023/09/20 07:15:25;;;;;;;2.90;2.40;;;;;;;16.52;100.00;96293.72;5051544;27;105470;-77
2023/09/20 07:18:00;;;;;;;2.70;2.50;;;;;;;16.57;100.00;96291.75;5050660;27;104048;-77
2023/09/20 07:20:29;;;;;;;4.17;2.50;;;;;;;16.55;100.00;96290.44;5051337;27;101898;-77
2023/09/20 07:22:58;;;;;;;2.40;2.20;;;;;;;16.79;100.00;96293.88;5051246;27;105454;-77
2023/09/20 07:25:27;;;;;;;3.03;2.30;;;;;;;16.75;100.00;96298.22;5050084;27;104237;-77
2023/09/20 07:27:58;;;;;;;1.93;1.83;;;;;;;16.56;100.00;96300.13;5054716;27;101942;-77
2023/09/20 07:30:31;;;;;;;1.80;1.70;;;;;;;16.72;100.00;96298.78;5050667;27;105100;-77
2023/09/20 07:33:02;;;;;;;1.87;1.63;;;;;;;16.83;100.00;96290.31;5051054;27;101969;-77
2023/09/20 07:35:37;;;;;;;2.70;2.20;;;;;;;16.93;100.00;96279.41;5052477;27;101707;-77
2023/09/20 07:38:05;;;;;;;2.10;1.90;;;;;;;17.14;100.00;96285.25;5050353;27;105717;-77
2023/09/20 07:40:35;;;;;;;2.60;2.10;;;;;;;17.16;100.00;96275.03;5050972;27;101938;-77
2023/09/20 07:43:04;;;;;;;3.40;1.77;;;;;;;17.34;100.00;96279.53;5050965;27;105934;-77
2023/09/20 07:45:37;;;;;;;2.30;2.10;;;;;;;17.32;100.00;96277.16;5050097;27;105196;-77
2023/09/20 07:48:12;;;;;;;2.50;2.20;;;;;;;17.42;100.00;96285.06;5051007;27;101914;-77
2023/09/20 07:50:43;;;;;;;2.53;2.33;;;;;;;17.59;100.00;96271.84;5053601;27;103813;-77
2023/09/20 07:53:11;;;;;;;3.37;1.87;;;;;;;17.46;100.00;96269.13;5050748;27;102484;-77
2023/09/20 07:55:43;;;;;;;3.43;1.87;;;;;;;17.66;100.00;96260.72;5050629;27;105226;-77
2023/09/20 07:58:11;;;;;;;2.43;2.23;;;;;;;17.52;100.00;96254.50;5049963;27;105681;-77
2023/09/20 08:00:41;;;;;;;2.00;1.90;;;;;;;17.73;100.00;96261.09;5050778;27;101934;-77
2023/09/20 08:03:10;;;;;;;2.90;2.70;;;;;;;17.86;100.00;96260.31;5050785;27;104849;-77
2023/09/20 08:05:38;;;;;;;2.20;2.00;;;;;;;17.95;100.00;96259.31;5050010;27;105187;-77
2023/09/20 08:08:06;;;;;;;2.70;2.23;;;;;;;18.00;100.00;96258.41;5052024;27;101826;-77
2023/09/20 08:10:34;;;;;;;2.30;2.10;;;;;;;18.20;100.00;96258.00;5050512;27;105122;-77
2023/09/20 08:13:01;;;;;;;2.17;1.80;;;;;;;18.01;100.00;96243.88;5053002;27;101859;-77
2023/09/20 08:15:28;;;;;;;2.23;1.80;;;;;;;18.15;100.00;96248.13;5050520;27;104418;-77
2023/09/20 08:20:41;;;;;;;2.57;2.13;;;;;;;18.37;100.00;96239.38;5050321;27;101903;-77
2023/09/20 09:01:38;;;;;;;1.37;1.17;;;;;;;21.38;100.00;96217.16;5050759;27;102927;-77
2023/09/20 09:04:08;;;;;;;2.10;1.20;;;;;;;21.31;100.00;96218.78;5049458;27;101914;-77
2023/09/20 09:06:35;;;;;;;1.37;1.37;;;;;;;21.36;100.00;96215.91;5049566;27;105560;-77
2023/09/20 09:09:04;;;;;;;1.40;1.30;;;;;;;21.57;100.00;96208.66;5048897;27;105130;-78
2023/09/20 09:11:31;;;;;;;1.37;1.20;;;;;;;21.68;100.00;96215.34;5051055;27;102108;-78
2023/09/20 09:13:59;;;;;;;1.73;1.50;;;;;;;21.76;100.00;96206.38;5049520;27;105381;-77
2023/09/20 09:16:27;;;;;;;2.33;1.50;;;;;;;21.97;100.00;96209.94;5049080;27;103828;-77
2023/09/20 09:18:55;;;;;;;1.83;1.50;;;;;;;22.03;100.00;96204.03;5049317;27;101932;-77
2023/09/20 09:21:22;;;;;;;2.03;1.27;;;;;;;22.03;100.00;96200.53;5052368;27;103746;-77
2023/09/20 09:23:50;;;;;;;1.40;1.30;;;;;;;21.65;100.00;96197.81;5049557;27;102138;-77
2023/09/20 09:26:18;;;;;;;2.60;1.27;;;;;;;21.77;100.00;96195.25;5049193;27;105829;-77
2023/09/20 09:28:46;;;;;;;2.10;1.10;;;;;;;21.87;100.00;96191.38;5050089;27;103216;-77
2023/09/20 09:31:14;;;;;;;2.30;1.13;;;;;;;22.38;100.00;96182.91;5049443;27;102034;-77
2023/09/20 09:33:42;;;;;;;5.03;1.80;;;;;;;22.82;100.00;96176.84;5049301;27;103686;-77
2023/09/20 09:36:10;;;;;;;1.33;1.10;;;;;;;22.89;100.00;96175.19;5048627;27;104403;-77
2023/09/20 09:38:39;;;;;;;1.20;1.10;;;;;;;23.30;100.00;96177.03;5052997;27;101902;-77
2023/09/20 09:41:08;;;;;;;1.83;1.10;;;;;;;23.45;100.00;96171.78;5052981;27;104208;-77
2023/09/20 09:43:37;;;;;;;1.00;0.70;;;;;;;23.55;100.00;96170.53;5055783;27;104012;-77
2023/09/20 09:46:06;;;;;;;2.87;1.33;;;;;;;23.23;100.00;96165.97;5052725;27;105139;-77
2023/09/20 09:48:34;;;;;;;1.00;0.97;;;;;;;23.77;100.00;96165.44;5051919;27;104349;-77
2023/09/20 09:51:01;;;;;;;0.73;0.73;;;;;;;23.93;100.00;96160.19;5052861;27;102043;-77
2023/09/20 09:53:30;;;;;;;0.83;0.83;;;;;;;23.98;100.00;96154.53;5052703;27;104138;-77
2023/09/20 09:55:59;;;;;;;1.10;1.00;;;;;;;24.03;100.00;96146.16;5052034;27;105435;-77
2023/09/20 09:58:27;;;;;;;0.80;0.80;;;;;;;24.28;100.00;96142.25;5052623;27;101979;-78
2023/09/20 10:00:57;;;;;;;1.53;0.80;;;;;;;24.47;100.00;96142.44;5052351;27;103894;-77
2023/09/20 10:03:30;;;;;;;1.30;0.90;;;;;;;24.68;100.00;96143.09;5051931;27;105356;-77
2023/09/20 10:06:05;;;;;;;0.70;0.63;;;;;;;24.91;100.00;96141.41;5055940;27;101927;-77
2023/09/20 10:08:37;;;;;;;1.23;0.80;;;;;;;24.78;100.00;96140.66;5051802;27;105722;-77
2023/09/20 10:11:05;;;;;;;0.90;0.80;;;;;;;25.01;100.00;96130.03;5053916;27;101820;-77
2023/09/20 10:13:34;;;;;;;1.17;0.70;;;;;;;24.82;100.00;96121.72;5051874;27;106021;-77
2023/09/20 10:16:04;;;;;;;2.37;1.03;;;;;;;24.82;100.00;96122.50;5051781;27;103951;-77
2023/09/20 10:18:33;;;;;;;1.60;0.80;;;;;;;25.07;100.00;96128.63;5052170;27;101863;-77
2023/09/20 10:21:10;;;;;;;0.80;0.80;;;;;;;25.02;100.00;96116.03;5053441;27;101774;-77
2023/09/20 10:23:39;;;;;;;0.80;0.80;;;;;;;25.08;100.00;96111.94;5053117;27;101910;-77
2023/09/20 10:26:14;;;;;;;0.80;0.80;;;;;;;25.24;100.00;96111.97;5055291;27;101936;-77
2023/09/20 10:28:41;;;;;;;0.77;0.70;;;;;;;25.27;100.00;96108.56;5051632;27;106096;-77
2023/09/20 10:31:15;;;;;;;3.20;0.70;;;;;;;25.49;100.00;96108.75;5051959;27;101750;-77
2023/09/20 10:33:47;;;;;;;1.30;0.67;;;;;;;25.63;100.00;96111.84;5052238;27;104072;-77
2023/09/20 10:36:19;;;;;;;2.20;0.80;;;;;;;25.89;100.00;96100.38;5034233;27;106800;-77
2023/09/20 10:38:47;;;;;;;1.83;0.80;;;;;;;25.92;100.00;96091.50;5052080;27;101965;-77
2023/09/20 10:41:15;;;;;;;1.83;0.70;;;;;;;25.96;100.00;96089.66;5052209;27;104335;-77
2023/09/20 10:43:48;;;;;;;1.90;0.80;;;;;;;25.58;100.00;96092.22;5051510;27;104224;-77
2023/09/20 10:46:19;;;;;;;1.10;1.00;;;;;;;25.84;100.00;96087.03;5051968;27;101806;-77
2023/09/20 10:48:51;;;;;;;1.80;0.90;;;;;;;26.08;100.00;96081.34;5054106;27;105646;-77
2023/09/20 10:51:43;;;;;;;1.00;0.80;;;;;;;25.80;100.00;96078.78;5051804;27;101894;-77
2023/09/20 10:54:22;;;;;;;1.40;0.70;;;;;;;25.96;100.00;96089.66;5038200;27;102814;-77
2023/09/20 10:57:07;;;;;;;1.23;0.70;;;;;;;26.40;100.00;96088.28;5051110;27;105617;-77
2023/09/20 10:59:36;;;;;;;2.10;0.60;;;;;;;26.24;100.00;96076.66;5050404;27;102071;-77
2023/09/20 11:02:10;;;;;;;1.77;0.50;;;;;;;26.34;100.00;96079.63;5051472;27;105232;-77
2023/09/20 11:04:38;;;;;;;0.60;0.60;;;;;;;26.30;93.84;96067.84;5050921;27;105158;-77
2023/09/20 11:07:06;;;;;;;0.60;0.60;;;;;;;26.61;100.00;96062.28;5051604;27;101907;-77
2023/09/20 11:09:33;;;;;;;0.70;0.70;;;;;;;26.86;99.77;96066.25;5051611;27;105042;-77
2023/09/20 11:12:06;;;;;;;1.53;0.60;;;;;;;26.34;100.00;96057.00;5054180;27;105515;-77
2023/09/20 11:14:34;;;;;;;2.03;0.70;;;;;;;26.27;100.00;96051.41;5051344;27;105306;-77
2023/09/20 11:17:02;;;;;;;0.70;0.70;;;;;;;26.46;100.00;96043.22;5050976;27;105638;-77
2023/09/20 11:19:30;;;;;;;0.60;0.60;;;;;;;26.50;100.00;96044.09;5051343;27;101919;-77
2023/09/20 11:21:58;;;;;;;0.60;0.60;;;;;;;26.99;98.35;96043.13;5051463;27;104385;-77
2023/09/20 11:24:26;;;;;;;0.70;0.70;;;;;;;27.04;99.49;96037.38;5054808;27;101964;-77
2023/09/20 11:26:55;;;;;;;1.80;0.70;;;;;;;26.94;100.00;96034.44;5054774;27;101959;-77
2023/09/20 11:29:22;;;;;;;0.90;0.60;;;;;;;27.11;98.24;96032.03;5054489;27;103889;-77
2023/09/20 11:31:50;;;;;;;0.50;0.50;;;;;;;26.88;100.00;96027.69;5054196;27;104667;-77
2023/09/20 11:34:19;;;;;;;0.80;0.67;;;;;;;27.05;99.27;96033.47;5057951;27;101952;-78
2023/09/20 11:36:48;;;;;;;0.50;0.50;;;;;;;26.73;100.00;96031.31;5072127;27;102694;-78
2023/09/20 11:39:17;;;;;;;1.33;0.67;;;;;;;27.31;97.30;96019.13;5054376;27;102046;-78
2023/09/20 11:41:45;;;;;;;0.60;0.60;;;;;;;27.37;100.00;96023.91;5054549;27;105433;-78
2023/09/20 11:44:12;;;;;;;0.90;0.53;;;;;;;27.54;93.83;96017.94;5053668;27;105377;-78
2023/09/20 11:46:39;;;;;;;0.70;0.70;;;;;;;27.58;90.67;96013.28;5072598;27;101950;-78
2023/09/20 11:49:08;;;;;;;0.60;0.60;;;;;;;27.34;91.17;96016.44;5054232;27;105137;-78
2023/09/20 11:51:37;;;;;;;0.63;0.63;;;;;;;27.20;95.32;96004.50;5053501;27;105576;-78
2023/09/20 11:54:10;;;;;;;0.70;0.70;;;;;;;27.59;97.74;96008.63;5054232;27;102037;-78
2023/09/20 11:56:37;;;;;;;0.60;0.60;;;;;;;27.32;95.87;96002.38;5057131;27;104874;-78
2023/09/20 11:59:09;;;;;;;0.60;0.60;;;;;;;27.83;99.10;95998.09;5053361;27;101909;-78
2023/09/20 12:01:41;;;;;;;2.13;0.70;;;;;;;27.48;100.00;95994.81;5054011;27;105316;-78
2023/09/20 12:04:08;;;;;;;0.90;0.67;;;;;;;27.56;100.00;95995.69;5053513;27;105124;-78
2023/09/20 12:06:36;;;;;;;1.60;0.90;;;;;;;27.67;96.81;95989.25;5053837;27;102079;-78